Time;durP1;ratioP1;P1;durP2;ratioP2;P2;SDS_P1;SDS_P2;PMS_P1;PMS_P2;Temp;Humidity;BMP_temperature;BMP_pressure;BME280_temperature;BME280_humidity;BME280_pressure;Samples;Min_cycle;Max_cycle;Signal;HPM_P1;HPM_P2
2021/06/26 00:00:05;;;;;;;3.75;2.78;;;18.30;73.70;;;;;;5044912;28;20305;-65
2021/06/26 00:02:30;;;;;;;3.58;2.58;;;18.30;73.80;;;;;;5044664;28;20037;-65
2021/06/26 00:04:56;;;;;;;6.78;2.40;;;18.20;74.00;;;;;;5043902;28;20042;-66
2021/06/26 00:07:21;;;;;;;3.90;2.53;;;18.20;74.30;;;;;;5043735;28;20033;-66
2021/06/26 00:09:47;;;;;;;3.72;2.40;;;18.20;74.10;;;;;;5043450;28;20028;-66
2021/06/26 00:12:12;;;;;;;3.70;2.53;;;18.30;73.60;;;;;;5043908;28;20025;-67
2021/06/26 00:14:38;;;;;;;6.32;2.60;;;18.30;73.60;;;;;;5043822;28;20068;-66
2021/06/26 00:17:03;;;;;;;4.55;2.33;;;18.30;73.30;;;;;;5043635;28;20033;-66
2021/06/26 00:19:29;;;;;;;3.05;2.30;;;18.30;73.20;;;;;;5043732;28;20048;-66
2021/06/26 00:21:55;;;;;;;6.78;2.72;;;18.40;72.80;;;;;;5043790;28;20096;-66
2021/06/26 00:24:21;;;;;;;3.75;2.50;;;18.50;72.10;;;;;;5043763;28;20025;-66
2021/06/26 00:26:46;;;;;;;2.70;2.10;;;18.50;71.50;;;;;;5043654;28;20265;-66
2021/06/26 00:29:12;;;;;;;4.85;2.50;;;18.40;71.30;;;;;;5043584;28;20079;-66
2021/06/26 00:31:37;;;;;;;3.70;2.60;;;18.20;72.50;;;;;;5043393;28;20034;-66
2021/06/26 00:34:03;;;;;;;5.75;2.47;;;18.10;72.80;;;;;;5043279;28;20041;-66
2021/06/26 00:36:28;;;;;;;4.97;2.25;;;18.20;72.50;;;;;;5043874;28;20021;-66
2021/06/26 00:38:54;;;;;;;5.18;2.58;;;18.30;72.20;;;;;;5043922;28;20101;-66
2021/06/26 00:41:19;;;;;;;5.20;2.30;;;18.10;71.90;;;;;;5046825;28;20395;-66
2021/06/26 00:43:45;;;;;;;3.30;2.58;;;18.00;72.50;;;;;;5047126;28;20041;-66
2021/06/26 00:46:11;;;;;;;3.30;2.42;;;17.90;72.60;;;;;;5047208;28;20053;-66
2021/06/26 00:48:36;;;;;;;3.78;2.35;;;17.80;73.00;;;;;;5046951;28;20213;-66
2021/06/26 00:51:02;;;;;;;4.25;2.72;;;17.70;73.90;;;;;;5047495;28;20343;-66
2021/06/26 00:53:27;;;;;;;4.55;2.75;;;17.70;73.60;;;;;;5047120;28;20029;-66
2021/06/26 00:55:53;;;;;;;3.00;2.22;;;17.70;73.40;;;;;;5045778;28;20046;-66
2021/06/26 00:58:22;;;;;;;4.47;2.55;;;17.70;73.70;;;;;;5046614;28;20333;-66
2021/06/26 01:00:48;;;;;;;3.60;2.50;;;17.70;73.70;;;;;;5045522;28;20022;-66
2021/06/26 01:03:14;;;;;;;3.45;2.42;;;17.80;73.20;;;;;;5047280;28;20025;-66
2021/06/26 01:05:39;;;;;;;3.58;2.60;;;17.40;73.80;;;;;;5046977;28;20057;-67
2021/06/26 01:08:05;;;;;;;4.25;2.70;;;17.20;74.50;;;;;;5046670;28;20033;-66
2021/06/26 01:10:30;;;;;;;4.93;2.60;;;17.20;75.00;;;;;;5046726;28;20025;-66
2021/06/26 01:12:57;;;;;;;3.30;2.38;;;17.10;75.20;;;;;;5046359;28;20022;-66
2021/06/26 01:15:22;;;;;;;3.17;2.40;;;17.30;75.00;;;;;;5046814;28;20066;-66
2021/06/26 01:17:48;;;;;;;3.50;2.55;;;17.50;74.20;;;;;;5046834;28;20333;-66
2021/06/26 01:20:14;;;;;;;4.13;2.53;;;17.50;73.80;;;;;;5046212;28;20037;-67
2021/06/26 01:22:43;;;;;;;6.00;2.50;;;17.50;73.60;;;;;;5045059;28;20033;-66
2021/06/26 01:25:11;;;;;;;4.88;2.47;;;17.50;73.60;;;;;;5046098;28;20105;-67
2021/06/26 01:27:36;;;;;;;2.97;2.35;;;17.30;74.10;;;;;;5045540;28;20333;-66
2021/06/26 01:30:02;;;;;;;6.18;2.58;;;17.20;74.80;;;;;;5046825;28;20086;-66
2021/06/26 01:32:28;;;;;;;4.93;2.70;;;17.30;74.40;;;;;;5046014;28;20037;-66
2021/06/26 01:34:53;;;;;;;3.75;2.50;;;17.40;73.80;;;;;;5045931;28;20033;-67
2021/06/26 01:37:19;;;;;;;3.33;2.53;;;17.40;73.90;;;;;;5044640;28;20040;-66
2021/06/26 01:39:44;;;;;;;5.75;2.70;;;17.30;74.20;;;;;;5045786;28;20089;-66
2021/06/26 01:42:10;;;;;;;3.42;2.40;;;17.30;74.40;;;;;;5046312;28;20030;-66
2021/06/26 01:44:36;;;;;;;3.05;2.40;;;17.20;74.70;;;;;;5044781;28;20049;-65
2021/06/26 01:47:01;;;;;;;4.55;2.28;;;17.20;75.00;;;;;;5045617;28;20388;-66
2021/06/26 01:49:27;;;;;;;3.88;2.65;;;17.30;74.30;;;;;;5046026;28;20109;-66
2021/06/26 01:51:53;;;;;;;3.30;2.47;;;17.30;74.00;;;;;;5027384;28;20107;-66
2021/06/26 01:54:18;;;;;;;3.60;2.17;;;17.30;73.80;;;;;;5046341;28;20056;-66
2021/06/26 01:56:44;;;;;;;5.65;2.40;;;17.30;73.30;;;;;;5046042;28;20056;-66
2021/06/26 01:59:10;;;;;;;5.65;2.80;;;17.20;73.90;;;;;;5045796;28;20360;-67
2021/06/26 02:01:35;;;;;;;4.28;2.35;;;17.20;74.00;;;;;;5045832;28;20033;-66
2021/06/26 02:04:01;;;;;;;4.38;2.40;;;17.10;73.80;;;;;;5045511;28;20029;-66
2021/06/26 02:06:27;;;;;;;5.45;2.78;;;17.30;73.60;;;;;;5045040;28;20033;-66
2021/06/26 02:08:52;;;;;;;6.22;2.50;;;17.30;73.00;;;;;;5045002;28;20038;-66
2021/06/26 02:11:18;;;;;;;6.32;2.25;;;17.30;72.60;;;;;;5045718;28;20049;-66
2021/06/26 02:13:43;;;;;;;5.45;2.60;;;17.30;72.70;;;;;;5045472;28;20037;-66
2021/06/26 02:16:09;;;;;;;4.55;2.80;;;17.20;72.90;;;;;;5045328;28;20037;-66
2021/06/26 02:18:34;;;;;;;3.58;2.30;;;17.10;73.30;;;;;;5045082;28;20033;-67
2021/06/26 02:21:00;;;;;;;4.25;2.40;;;17.00;73.60;;;;;;5045535;28;20371;-66
2021/06/26 02:23:26;;;;;;;3.67;2.47;;;17.00;73.60;;;;;;5045460;28;20064;-66
2021/06/26 02:25:52;;;;;;;4.22;2.58;;;17.00;73.60;;;;;;5045271;28;20048;-66
2021/06/26 02:28:17;;;;;;;5.35;2.28;;;17.00;73.20;;;;;;5043864;28;20037;-66
2021/06/26 02:30:43;;;;;;;6.47;2.70;;;16.90;73.20;;;;;;5044876;28;20030;-66
2021/06/26 02:33:09;;;;;;;4.05;2.83;;;16.90;73.50;;;;;;5045619;28;20244;-66
2021/06/26 02:35:34;;;;;;;3.00;2.40;;;16.80;74.00;;;;;;5045286;28;20045;-66
2021/06/26 02:38:00;;;;;;;5.80;2.70;;;16.90;73.80;;;;;;5044966;28;20088;-66
2021/06/26 02:40:25;;;;;;;7.78;2.55;;;16.80;73.20;;;;;;5044476;28;20041;-67
2021/06/26 02:42:51;;;;;;;5.60;2.50;;;16.80;73.20;;;;;;5044791;28;20041;-66
2021/06/26 02:45:16;;;;;;;4.32;2.60;;;16.70;73.70;;;;;;5045663;28;20045;-66
2021/06/26 02:47:42;;;;;;;4.15;2.67;;;16.40;74.10;;;;;;5045063;28;20033;-66
2021/06/26 02:50:09;;;;;;;4.80;2.50;;;16.30;75.00;;;;;;5044528;28;20037;-65
2021/06/26 02:52:34;;;;;;;6.75;2.40;;;16.20;75.10;;;;;;5044638;28;20380;-67
2021/06/26 02:55:00;;;;;;;6.68;2.45;;;16.10;75.50;;;;;;5044523;28;20072;-66
2021/06/26 02:57:25;;;;;;;4.35;2.50;;;16.20;75.30;;;;;;5045081;28;20041;-66
2021/06/26 02:59:51;;;;;;;5.28;2.67;;;16.30;75.10;;;;;;5044907;28;20037;-66
2021/06/26 03:02:17;;;;;;;5.57;2.63;;;16.40;75.10;;;;;;5043392;28;20056;-66
2021/06/26 03:04:43;;;;;;;6.57;2.80;;;16.50;74.50;;;;;;5044500;28;20045;-66
2021/06/26 03:07:08;;;;;;;5.28;2.78;;;16.60;74.00;;;;;;5044250;28;20229;-66
2021/06/26 03:09:34;;;;;;;4.22;2.53;;;16.60;73.80;;;;;;5043422;28;20033;-66
2021/06/26 03:12:00;;;;;;;8.38;2.65;;;16.60;73.70;;;;;;5044764;28;20025;-66
2021/06/26 03:14:25;;;;;;;4.97;2.92;;;16.40;73.90;;;;;;5044541;28;20025;-66
2021/06/26 03:16:51;;;;;;;2.70;2.30;;;16.40;74.30;;;;;;5044422;28;20096;-66
2021/06/26 03:19:16;;;;;;;7.57;2.70;;;16.30;74.30;;;;;;5044058;28;20022;-66
2021/06/26 03:21:42;;;;;;;3.63;2.58;;;16.30;74.70;;;;;;5044205;28;20035;-66
2021/06/26 03:24:08;;;;;;;5.75;2.60;;;16.40;74.50;;;;;;5044692;28;20075;-66
2021/06/26 03:26:34;;;;;;;4.20;2.50;;;16.30;74.30;;;;;;5043060;28;20088;-67
2021/06/26 03:29:01;;;;;;;5.10;2.20;;;16.40;74.20;;;;;;5043934;28;20041;-66
2021/06/26 03:31:26;;;;;;;4.85;2.40;;;16.40;74.10;;;;;;5043857;28;20056;-66
2021/06/26 03:33:52;;;;;;;5.72;2.40;;;16.40;73.80;;;;;;5043841;28;20217;-66
2021/06/26 03:36:17;;;;;;;5.10;2.65;;;16.40;74.40;;;;;;5044811;28;20194;-66
2021/06/26 03:38:43;;;;;;;6.40;2.50;;;16.40;73.70;;;;;;5044255;28;20037;-65
2021/06/26 03:41:09;;;;;;;4.75;2.67;;;16.40;74.00;;;;;;5043624;28;20037;-66
2021/06/26 03:43:34;;;;;;;4.40;2.65;;;16.30;73.80;;;;;;5043905;28;20046;-66
2021/06/26 03:46:00;;;;;;;5.18;3.00;;;16.30;74.20;;;;;;5043907;28;20025;-66
2021/06/26 03:48:26;;;;;;;5.75;2.78;;;16.10;74.20;;;;;;5044327;28;20248;-66
2021/06/26 03:50:52;;;;;;;4.80;3.28;;;16.00;74.70;;;;;;5043095;28;20037;-66
2021/06/26 03:53:17;;;;;;;5.80;3.20;;;15.90;74.70;;;;;;5043994;28;20034;-65
2021/06/26 03:55:51;;;;;;;5.45;3.15;;;15.80;75.10;;;;;;5043642;28;20041;-65
2021/06/26 03:58:19;;;;;;;8.07;3.20;;;15.90;75.00;;;;;;5043644;28;20101;-65
2021/06/26 04:00:45;;;;;;;5.82;3.67;;;15.80;75.10;;;;;;5043505;28;20316;-65
2021/06/26 04:03:10;;;;;;;4.93;3.22;;;15.90;75.00;;;;;;5043971;28;20030;-65
2021/06/26 04:05:36;;;;;;;4.75;3.25;;;15.90;74.80;;;;;;5044008;28;20029;-66
2021/06/26 04:08:01;;;;;;;5.78;3.70;;;15.90;75.10;;;;;;5043689;28;20037;-66
2021/06/26 04:10:27;;;;;;;7.50;3.30;;;15.80;75.40;;;;;;5043162;28;20057;-65
2021/06/26 04:12:52;;;;;;;5.68;3.33;;;16.10;75.20;;;;;;5043461;28;20431;-65
2021/06/26 04:15:18;;;;;;;7.03;3.08;;;16.20;74.40;;;;;;5047644;28;20041;-65
2021/06/26 04:17:44;;;;;;;5.75;3.35;;;16.10;74.80;;;;;;5047882;28;20044;-64
2021/06/26 04:20:10;;;;;;;7.72;3.45;;;16.10;75.20;;;;;;5047681;28;20049;-65
2021/06/26 04:22:35;;;;;;;7.75;3.50;;;16.00;75.60;;;;;;5046523;28;20045;-64
2021/06/26 04:25:01;;;;;;;4.75;3.15;;;16.20;75.70;;;;;;5047377;28;20097;-64
2021/06/26 04:27:27;;;;;;;4.95;3.15;;;16.30;75.10;;;;;;5048173;28;20037;-63
2021/06/26 04:29:52;;;;;;;5.10;2.75;;;16.30;75.10;;;;;;5047680;28;20092;-65
2021/06/26 04:32:18;;;;;;;5.25;3.10;;;16.20;75.60;;;;;;5046176;28;20221;-65
2021/06/26 04:34:44;;;;;;;4.30;2.90;;;16.30;75.20;;;;;;5047366;28;20243;-65
2021/06/26 04:37:09;;;;;;;4.78;3.50;;;16.50;75.10;;;;;;5047775;28;20221;-65
2021/06/26 04:39:35;;;;;;;5.72;3.33;;;16.50;74.90;;;;;;5047491;28;20038;-65
2021/06/26 04:42:00;;;;;;;7.53;3.33;;;16.60;74.80;;;;;;5046720;28;20052;-65
2021/06/26 04:44:27;;;;;;;7.60;3.30;;;16.50;74.80;;;;;;5045662;28;20060;-65
2021/06/26 04:46:52;;;;;;;5.32;3.00;;;16.60;74.70;;;;;;5047069;28;20064;-65
2021/06/26 04:49:18;;;;;;;5.70;3.03;;;16.70;74.40;;;;;;5047186;28;20027;-64
2021/06/26 04:51:43;;;;;;;5.70;3.40;;;16.60;74.80;;;;;;5045960;28;20225;-65
2021/06/26 04:54:09;;;;;;;6.57;3.10;;;16.60;75.20;;;;;;5047172;28;20079;-65
2021/06/26 04:56:35;;;;;;;4.00;3.00;;;16.60;75.10;;;;;;5046010;28;20029;-65
2021/06/26 04:59:00;;;;;;;8.18;3.00;;;16.70;75.10;;;;;;5047005;28;20085;-65
2021/06/26 05:01:26;;;;;;;5.78;2.80;;;16.70;74.90;;;;;;5046774;28;20029;-65
2021/06/26 05:03:51;;;;;;;4.53;3.10;;;16.80;74.70;;;;;;5046776;28;20038;-65
2021/06/26 05:06:17;;;;;;;4.65;2.90;;;16.80;74.60;;;;;;5047137;28;20036;-65
2021/06/26 05:08:42;;;;;;;6.85;3.38;;;16.80;74.70;;;;;;5046908;28;20068;-65
2021/06/26 05:11:08;;;;;;;4.13;2.80;;;16.80;74.60;;;;;;5046664;28;20041;-66
2021/06/26 05:13:34;;;;;;;5.47;3.00;;;16.80;75.00;;;;;;5046123;28;20044;-65
2021/06/26 05:15:59;;;;;;;6.28;3.05;;;16.80;75.00;;;;;;5046280;28;20025;-66
2021/06/26 05:18:27;;;;;;;4.80;3.13;;;16.90;75.00;;;;;;5045639;28;20037;-65
2021/06/26 05:20:54;;;;;;;6.32;2.67;;;17.00;75.20;;;;;;5045636;28;20060;-65
2021/06/26 05:23:20;;;;;;;4.35;2.80;;;17.00;75.30;;;;;;5046215;28;20042;-65
2021/06/26 05:25:45;;;;;;;4.93;2.90;;;16.80;75.70;;;;;;5045043;28;20097;-65
2021/06/26 05:28:11;;;;;;;3.90;2.95;;;17.00;75.60;;;;;;5045989;28;20271;-65
2021/06/26 05:30:37;;;;;;;5.43;3.53;;;17.00;75.50;;;;;;5045198;28;20029;-65
2021/06/26 05:33:03;;;;;;;4.38;3.33;;;17.00;75.90;;;;;;5047045;28;20029;-66
2021/06/26 05:35:28;;;;;;;8.15;3.85;;;17.10;75.70;;;;;;5046392;28;20096;-65
2021/06/26 05:37:54;;;;;;;7.80;4.15;;;17.20;75.50;;;;;;5045800;28;20038;-65
2021/06/26 05:40:19;;;;;;;7.65;5.60;;;17.30;76.00;;;;;;5046150;28;20060;-65
2021/06/26 05:42:45;;;;;;;10.23;6.18;;;17.00;77.10;;;;;;5045879;28;20308;-66
2021/06/26 05:45:11;;;;;;;10.10;6.55;;;16.90;77.50;;;;;;5046797;28;20025;-67
2021/06/26 05:47:36;;;;;;;10.27;6.32;;;17.20;76.90;;;;;;5046116;28;20100;-66
2021/06/26 05:50:02;;;;;;;11.43;6.97;;;17.30;76.70;;;;;;5046054;28;20033;-65
2021/06/26 05:52:27;;;;;;;12.57;8.07;;;17.30;77.20;;;;;;5045929;28;20093;-65
2021/06/26 05:54:53;;;;;;;10.35;7.22;;;17.30;76.90;;;;;;5045876;28;20025;-67
2021/06/26 05:57:19;;;;;;;12.50;7.93;;;17.30;77.20;;;;;;5046220;28;20040;-64
2021/06/26 05:59:45;;;;;;;14.38;8.32;;;17.10;77.80;;;;;;5046045;28;20100;-65
2021/06/26 06:02:13;;;;;;;16.38;8.30;;;17.10;77.70;;;;;;5044620;28;20041;-64
2021/06/26 06:04:42;;;;;;;13.65;8.93;;;17.30;77.30;;;;;;5045400;28;20064;-65
2021/06/26 06:07:08;;;;;;;11.43;7.45;;;17.40;77.10;;;;;;5045393;28;20398;-65
2021/06/26 06:09:33;;;;;;;11.18;7.63;;;17.40;77.20;;;;;;5044406;28;20025;-64
2021/06/26 06:11:59;;;;;;;12.13;8.40;;;17.50;77.10;;;;;;5045732;28;20033;-65
2021/06/26 06:14:24;;;;;;;13.20;8.20;;;17.60;77.20;;;;;;5045276;28;20041;-65
2021/06/26 06:16:50;;;;;;;14.82;9.02;;;17.60;77.00;;;;;;5045288;28;20272;-64
2021/06/26 06:19:15;;;;;;;12.93;8.70;;;17.60;76.90;;;;;;5045129;28;20044;-64
2021/06/26 06:21:41;;;;;;;13.50;9.40;;;17.70;76.80;;;;;;5045024;28;20025;-65
2021/06/26 06:24:07;;;;;;;14.82;8.35;;;17.70;76.20;;;;;;5045403;28;20308;-64
2021/06/26 06:26:33;;;;;;;15.85;8.75;;;17.80;76.30;;;;;;5045262;28;20083;-64
2021/06/26 06:28:58;;;;;;;12.18;7.68;;;17.80;76.30;;;;;;5045288;28;20041;-64
2021/06/26 06:31:24;;;;;;;9.95;7.63;;;17.80;76.20;;;;;;5044060;28;20067;-65
2021/06/26 06:33:49;;;;;;;12.57;7.43;;;17.90;76.10;;;;;;5044847;28;20033;-65
2021/06/26 06:36:15;;;;;;;11.18;7.60;;;18.10;76.30;;;;;;5045296;28;20022;-65
2021/06/26 06:38:41;;;;;;;10.98;7.60;;;18.10;76.10;;;;;;5045027;28;20033;-65
2021/06/26 06:41:06;;;;;;;10.20;7.35;;;18.10;75.80;;;;;;5044459;28;20079;-65
2021/06/26 06:43:32;;;;;;;13.73;7.65;;;18.30;75.60;;;;;;5044602;28;20057;-66
2021/06/26 06:45:58;;;;;;;11.38;7.43;;;18.30;75.40;;;;;;5044768;28;20042;-65
2021/06/26 06:48:24;;;;;;;10.40;7.15;;;18.20;74.80;;;;;;5043843;28;20029;-65
2021/06/26 06:50:50;;;;;;;10.27;7.28;;;18.30;75.30;;;;;;5043898;28;20061;-65
2021/06/26 06:53:15;;;;;;;9.70;6.40;;;18.30;75.00;;;;;;5044896;28;20164;-65
2021/06/26 06:55:41;;;;;;;9.35;6.60;;;18.40;74.90;;;;;;5043502;28;20033;-65
2021/06/26 06:58:06;;;;;;;10.38;6.20;;;18.50;74.40;;;;;;5044832;28;20030;-65
2021/06/26 07:00:32;;;;;;;8.02;6.03;;;18.60;74.10;;;;;;5044883;28;20037;-66
2021/06/26 07:02:57;;;;;;;7.00;5.43;;;18.70;73.70;;;;;;5044708;28;20093;-65
2021/06/26 07:05:23;;;;;;;5.82;4.68;;;18.70;72.90;;;;;;5043632;28;20034;-64
2021/06/26 07:07:48;;;;;;;6.40;4.78;;;18.80;73.30;;;;;;5044096;28;20036;-65
2021/06/26 07:10:14;;;;;;;7.10;5.22;;;18.80;73.40;;;;;;5044109;28;20026;-65
2021/06/26 07:12:40;;;;;;;6.75;5.40;;;18.90;72.70;;;;;;5043047;28;20080;-65
2021/06/26 07:15:06;;;;;;;6.97;4.60;;;18.90;72.40;;;;;;5044842;28;20025;-66
2021/06/26 07:17:32;;;;;;;7.63;5.03;;;19.00;72.20;;;;;;5044528;28;20041;-64
2021/06/26 07:19:57;;;;;;;6.95;5.00;;;19.00;71.80;;;;;;5043990;28;20037;-68
2021/06/26 07:22:23;;;;;;;9.05;4.88;;;19.10;72.00;;;;;;5043968;28;20085;-65
2021/06/26 07:24:48;;;;;;;7.75;4.97;;;19.30;72.00;;;;;;5043839;28;20352;-67
2021/06/26 07:27:14;;;;;;;6.40;4.63;;;19.40;72.40;;;;;;5044250;28;20033;-68
2021/06/26 07:29:39;;;;;;;8.52;5.05;;;19.50;72.00;;;;;;5044329;28;20026;-66
2021/06/26 07:32:05;;;;;;;6.85;4.85;;;19.50;70.80;;;;;;5042725;28;20052;-65
2021/06/26 07:34:31;;;;;;;9.95;4.90;;;19.60;71.30;;;;;;5043895;28;20094;-65
2021/06/26 07:36:57;;;;;;;6.93;4.85;;;19.60;70.00;;;;;;5043793;28;20360;-64
2021/06/26 07:39:22;;;;;;;6.93;4.45;;;19.80;70.40;;;;;;5044425;28;20056;-65
2021/06/26 07:41:48;;;;;;;7.07;4.82;;;19.90;70.60;;;;;;5043609;28;20095;-65
2021/06/26 07:44:13;;;;;;;6.13;4.38;;;20.00;69.00;;;;;;5043468;28;20045;-65
2021/06/26 07:46:39;;;;;;;5.30;4.05;;;20.10;68.90;;;;;;5043619;28;20054;-65
2021/06/26 07:49:04;;;;;;;6.75;4.57;;;20.20;68.50;;;;;;5042738;28;20214;-65
2021/06/26 07:51:30;;;;;;;6.00;4.15;;;20.30;68.10;;;;;;5044026;28;20037;-65
2021/06/26 07:53:55;;;;;;;6.28;4.30;;;20.40;68.00;;;;;;5042548;28;20037;-65
2021/06/26 07:56:21;;;;;;;5.13;4.10;;;20.40;66.60;;;;;;5043956;28;20320;-65
2021/06/26 07:58:46;;;;;;;6.95;3.90;;;20.50;67.20;;;;;;5043620;28;20042;-64
2021/06/26 08:01:13;;;;;;;5.28;4.25;;;20.70;67.90;;;;;;5043457;28;20057;-65
2021/06/26 08:03:39;;;;;;;5.65;4.30;;;20.70;67.40;;;;;;5043633;28;20025;-64
2021/06/26 08:06:04;;;;;;;7.38;4.45;;;20.90;66.20;;;;;;5044192;28;20158;-66
2021/06/26 08:08:30;;;;;;;6.53;4.32;;;21.00;67.00;;;;;;5043529;28;20088;-67
2021/06/26 08:10:56;;;;;;;5.80;4.03;;;21.10;65.50;;;;;;5043498;28;20030;-66
2021/06/26 08:13:24;;;;;;;6.45;4.00;;;21.10;66.40;;;;;;5025866;28;20041;-67
2021/06/26 08:15:49;;;;;;;6.90;3.72;;;21.20;66.00;;;;;;5042558;28;20036;-66
2021/06/26 08:18:15;;;;;;;5.68;4.18;;;21.30;65.90;;;;;;5044063;28;20025;-65
2021/06/26 08:20:41;;;;;;;6.07;3.80;;;21.50;67.90;;;;;;5043748;28;20045;-65
2021/06/26 08:23:06;;;;;;;9.75;3.80;;;21.70;66.30;;;;;;5043585;28;20037;-65
2021/06/26 08:25:32;;;;;;;7.47;3.70;;;21.70;62.50;;;;;;5043615;28;20100;-66
2021/06/26 08:27:57;;;;;;;7.85;3.72;;;21.80;61.80;;;;;;5043697;28;20049;-65
2021/06/26 08:30:23;;;;;;;4.53;3.67;;;21.80;61.00;;;;;;5042993;28;20316;-65
2021/06/26 08:32:49;;;;;;;5.70;3.10;;;22.00;61.80;;;;;;5043735;28;20091;-65
2021/06/26 08:35:15;;;;;;;4.45;3.53;;;22.10;62.10;;;;;;5043549;28;20240;-65
2021/06/26 08:37:43;;;;;;;5.25;3.70;;;22.10;61.60;;;;;;5043245;28;20034;-65
2021/06/26 08:40:09;;;;;;;6.90;3.30;;;22.30;64.00;;;;;;5043288;28;20029;-65
2021/06/26 08:42:34;;;;;;;5.45;3.88;;;22.40;62.00;;;;;;5043228;28;20041;-65
2021/06/26 08:45:01;;;;;;;4.53;3.35;;;22.50;61.70;;;;;;5043572;28;20321;-65
2021/06/26 08:47:27;;;;;;;21.60;6.22;;;22.50;59.50;;;;;;5043329;28;20037;-65
2021/06/26 08:49:53;;;;;;;14.07;5.18;;;22.60;59.60;;;;;;5043539;28;20423;-65
2021/06/26 08:52:18;;;;;;;5.05;3.60;;;22.60;61.80;;;;;;5042117;28;20026;-65
2021/06/26 08:54:44;;;;;;;4.05;3.22;;;22.60;63.40;;;;;;5043201;28;20025;-65
2021/06/26 08:57:09;;;;;;;4.47;3.10;;;22.80;61.20;;;;;;5042323;28;20034;-65
2021/06/26 08:59:35;;;;;;;4.07;3.10;;;22.80;61.60;;;;;;5043174;28;20337;-65
2021/06/26 09:02:01;;;;;;;5.00;3.20;;;23.00;59.90;;;;;;5046924;28;20045;-65
2021/06/26 09:04:27;;;;;;;6.07;3.05;;;22.80;56.70;;;;;;5046742;28;20229;-65
2021/06/26 09:06:54;;;;;;;5.47;3.60;;;23.00;60.00;;;;;;5046454;28;20040;-65
2021/06/26 09:09:29;;;;;;;4.40;3.25;;;23.10;60.80;;;;;;5047218;28;20343;-66
2021/06/26 09:12:06;;;;;;;5.05;2.85;;;23.30;60.20;;;;;;5046809;28;20061;-66
2021/06/26 09:14:32;;;;;;;4.47;3.20;;;23.40;60.80;;;;;;5046861;28;20221;-66
2021/06/26 09:16:58;;;;;;;5.22;3.03;;;23.50;59.40;;;;;;5045855;28;20034;-66
2021/06/26 09:19:24;;;;;;;4.88;3.00;;;23.60;58.00;;;;;;5046209;28;20040;-66
2021/06/26 09:22:01;;;;;;;5.40;3.10;;;23.70;58.40;;;;;;5046148;28;20029;-66
2021/06/26 09:24:44;;;;;;;3.30;2.55;;;23.80;56.30;;;;;;5028818;28;20232;-66
2021/06/26 09:27:11;;;;;;;4.13;2.95;;;23.90;54.30;;;;;;5046335;28;20030;-66
2021/06/26 09:29:45;;;;;;;3.33;2.80;;;23.90;53.90;;;;;;5046523;28;20029;-66
2021/06/26 09:32:11;;;;;;;3.95;2.88;;;23.80;54.20;;;;;;5045389;28;20030;-66
2021/06/26 09:34:44;;;;;;;4.10;2.63;;;23.90;54.90;;;;;;5046085;28;20084;-66
2021/06/26 09:37:11;;;;;;;5.53;3.08;;;24.10;57.60;;;;;;5046374;28;20041;-66
2021/06/26 09:39:42;;;;;;;3.47;2.70;;;24.30;57.70;;;;;;5045719;28;20080;-66
2021/06/26 09:42:17;;;;;;;3.72;2.90;;;24.30;58.30;;;;;;5045796;28;20082;-66
2021/06/26 09:44:53;;;;;;;3.90;3.00;;;24.60;54.70;;;;;;5045886;28;20045;-66
2021/06/26 09:47:28;;;;;;;4.15;3.10;;;24.60;56.10;;;;;;5045548;28;20033;-66
2021/06/26 09:49:53;;;;;;;3.60;3.00;;;24.70;57.10;;;;;;5045764;28;20037;-65
2021/06/26 09:52:19;;;;;;;4.78;3.05;;;24.80;54.10;;;;;;5045714;28;20026;-67
2021/06/26 09:54:44;;;;;;;4.90;2.92;;;24.80;54.30;;;;;;5045471;28;20032;-67
2021/06/26 09:57:10;;;;;;;5.00;2.85;;;25.00;55.60;;;;;;5044759;28;20128;-65
2021/06/26 09:59:36;;;;;;;4.38;2.85;;;25.10;53.20;;;;;;5045549;28;20344;-64
2021/06/26 10:02:01;;;;;;;4.43;2.90;;;25.10;53.30;;;;;;5045333;28;20033;-64
2021/06/26 10:04:27;;;;;;;3.35;2.83;;;25.10;52.90;;;;;;5045722;28;20034;-64
2021/06/26 10:06:53;;;;;;;4.05;2.60;;;25.30;55.60;;;;;;5045415;28;20093;-66
2021/06/26 10:09:19;;;;;;;4.03;2.53;;;25.30;53.70;;;;;;5046011;28;20217;-66
2021/06/26 10:11:45;;;;;;;3.30;2.30;;;25.30;51.10;;;;;;5045084;28;20037;-67
2021/06/26 10:14:11;;;;;;;4.82;2.78;;;25.40;52.90;;;;;;5044462;28;20089;-65
2021/06/26 10:16:38;;;;;;;2.90;2.50;;;25.50;52.50;;;;;;5045377;28;20040;-65
2021/06/26 10:19:05;;;;;;;5.82;3.60;;;25.50;53.80;;;;;;5045022;28;20045;-64
2021/06/26 10:21:32;;;;;;;4.18;3.10;;;25.60;53.50;;;;;;5045682;28;20033;-65
2021/06/26 10:23:59;;;;;;;3.10;2.58;;;25.60;55.30;;;;;;5045751;28;20045;-67
2021/06/26 10:26:25;;;;;;;4.22;3.08;;;25.60;50.70;;;;;;5044718;28;20030;-67
2021/06/26 10:28:54;;;;;;;5.80;3.20;;;25.70;52.20;;;;;;5045287;28;20041;-67
2021/06/26 10:31:32;;;;;;;3.50;2.78;;;25.80;53.40;;;;;;5044604;28;20092;-68
2021/06/26 10:34:15;;;;;;;6.55;2.90;;;25.80;52.10;;;;;;5043700;28;20083;-69
2021/06/26 10:36:45;;;;;;;4.43;2.78;;;25.90;52.50;;;;;;5044756;28;20038;-67
2021/06/26 10:39:22;;;;;;;2.83;2.20;;;25.90;51.80;;;;;;5045672;28;20336;-67
2021/06/26 10:42:07;;;;;;;6.88;2.70;;;25.90;52.00;;;;;;5043606;28;20037;-66
2021/06/26 10:44:46;;;;;;;5.57;2.78;;;26.00;50.20;;;;;;5043903;28;20041;-66
2021/06/26 10:47:12;;;;;;;6.55;2.50;;;26.10;52.10;;;;;;5044545;28;20036;-66
2021/06/26 10:49:38;;;;;;;3.40;2.53;;;26.20;52.10;;;;;;5044870;28;20038;-66
2021/06/26 10:52:16;;;;;;;3.88;2.70;;;26.30;51.60;;;;;;5044266;28;20097;-66
2021/06/26 10:54:55;;;;;;;4.78;2.53;;;26.30;50.30;;;;;;5044281;28;20033;-67
2021/06/26 10:57:20;;;;;;;6.53;2.72;;;26.40;51.60;;;;;;5044855;28;20220;-69
2021/06/26 10:59:57;;;;;;;3.60;3.00;;;26.40;50.10;;;;;;5044918;28;20037;-68
2021/06/26 11:02:22;;;;;;;2.90;2.33;;;26.60;51.90;;;;;;5044674;28;20037;-68
2021/06/26 11:04:48;;;;;;;3.17;2.38;;;26.40;46.60;;;;;;5043506;28;20090;-69
2021/06/26 11:07:16;;;;;;;3.83;2.40;;;26.60;47.00;;;;;;5044329;28;20280;-68
2021/06/26 11:09:48;;;;;;;2.83;2.25;;;26.70;48.70;;;;;;5044418;28;20327;-67
2021/06/26 11:12:18;;;;;;;3.47;2.30;;;26.90;50.00;;;;;;5044799;28;20037;-69
2021/06/26 11:14:54;;;;;;;3.30;2.53;;;27.00;47.50;;;;;;5044647;28;20084;-67
2021/06/26 11:17:22;;;;;;;4.78;2.83;;;26.90;47.30;;;;;;5044004;28;20104;-68
2021/06/26 11:19:47;;;;;;;5.80;2.63;;;26.80;46.50;;;;;;5042958;28;20363;-68
2021/06/26 11:22:14;;;;;;;3.33;2.70;;;26.70;46.20;;;;;;5043969;28;20034;-67
2021/06/26 11:24:48;;;;;;;6.63;2.60;;;26.80;49.80;;;;;;5042598;28;20056;-68
2021/06/26 11:27:18;;;;;;;3.33;2.78;;;26.90;47.90;;;;;;5044898;28;20037;-71
2021/06/26 11:29:45;;;;;;;5.70;2.65;;;26.90;48.10;;;;;;5043333;28;20041;-68
2021/06/26 11:32:20;;;;;;;3.33;2.40;;;27.00;50.00;;;;;;5044279;28;20037;-68
2021/06/26 11:34:53;;;;;;;4.20;2.65;;;27.20;50.00;;;;;;5043111;28;20092;-71
2021/06/26 11:37:19;;;;;;;3.33;2.47;;;27.10;47.90;;;;;;5044070;28;20040;-70
2021/06/26 11:39:44;;;;;;;3.05;2.30;;;27.20;50.30;;;;;;5042563;28;20041;-67
2021/06/26 11:42:17;;;;;;;4.35;2.70;;;27.30;50.00;;;;;;5044244;28;20303;-68
2021/06/26 11:44:42;;;;;;;2.75;2.22;;;27.20;45.40;;;;;;5044152;28;20049;-68
2021/06/26 11:47:08;;;;;;;3.33;2.35;;;27.20;49.10;;;;;;5042878;28;20064;-70
2021/06/26 11:49:38;;;;;;;3.25;2.50;;;27.20;46.00;;;;;;5043832;28;20025;-66
2021/06/26 11:52:05;;;;;;;2.80;2.30;;;27.20;45.90;;;;;;5044086;28;20041;-66
2021/06/26 11:54:31;;;;;;;4.72;2.45;;;27.20;47.00;;;;;;5044263;28;20365;-66
2021/06/26 11:56:56;;;;;;;3.72;2.28;;;27.20;49.20;;;;;;5043738;28;20037;-66
2021/06/26 11:59:22;;;;;;;5.57;2.70;;;27.10;45.60;;;;;;5043921;28;20029;-64
2021/06/26 12:01:50;;;;;;;2.80;2.03;;;27.20;48.70;;;;;;5043585;28;20029;-66
2021/06/26 12:04:27;;;;;;;5.60;2.40;;;27.20;47.50;;;;;;5042550;28;20264;-65
2021/06/26 12:06:53;;;;;;;2.60;2.13;;;27.30;46.80;;;;;;5042441;28;20030;-65
2021/06/26 12:09:22;;;;;;;3.63;2.60;;;27.30;47.50;;;;;;5043970;28;20036;-65
2021/06/26 12:11:48;;;;;;;3.25;2.40;;;27.10;46.80;;;;;;5042774;28;20037;-65
2021/06/26 12:14:13;;;;;;;4.18;2.58;;;27.20;47.50;;;;;;5043712;28;20324;-65
2021/06/26 12:16:39;;;;;;;5.13;2.42;;;27.40;49.60;;;;;;5042237;28;20092;-65
2021/06/26 12:19:11;;;;;;;6.47;2.60;;;27.40;49.40;;;;;;5043236;28;20030;-67
2021/06/26 12:21:44;;;;;;;4.40;2.75;;;27.30;49.10;;;;;;5043431;28;20084;-66
2021/06/26 12:24:11;;;;;;;8.23;2.80;;;27.40;48.10;;;;;;5044010;28;20057;-66
2021/06/26 12:26:36;;;;;;;5.65;2.70;;;27.20;48.00;;;;;;5026002;28;20213;-66
2021/06/26 12:29:02;;;;;;;5.32;2.38;;;27.20;47.10;;;;;;5043242;28;20045;-67
2021/06/26 12:31:28;;;;;;;3.35;2.40;;;27.20;49.40;;;;;;5042058;28;20391;-66
2021/06/26 12:34:05;;;;;;;3.88;2.47;;;27.20;49.20;;;;;;5043691;28;20046;-70
2021/06/26 12:36:31;;;;;;;5.82;2.92;;;27.10;48.60;;;;;;5048080;28;20041;-66
2021/06/26 12:38:57;;;;;;;6.18;2.80;;;26.80;47.20;;;;;;5047140;28;20079;-73
2021/06/26 12:41:27;;;;;;;4.88;2.67;;;26.60;47.10;;;;;;5046926;28;20068;-68